Time;durP1;ratioP1;P1;durP2;ratioP2;P2;SDS_P1;SDS_P2;PMS_P1;PMS_P2;Temp;Humidity;BMP_temperature;BMP_pressure;BME280_temperature;BME280_humidity;BME280_pressure;Samples;Min_cycle;Max_cycle;Signal;HPM_P1;HPM_P2
2022/04/08 00:00:27;;;;;;;1.77;1.40;;;;;;;;;;2085183;28;20025;-62
2022/04/08 00:01:46;;;;;;;2.30;1.27;;;;;;;;;;2083007;28;20018;-62
2022/04/08 00:03:06;;;;;;;1.30;1.20;;;;;;;;;;2083679;28;20017;-62
2022/04/08 00:04:25;;;;;;;2.83;1.30;;;;;;;;;;2083434;28;20030;-62
2022/04/08 00:05:44;;;;;;;1.60;1.38;;;;;;;;;;2084615;28;20033;-62
2022/04/08 00:07:03;;;;;;;3.35;1.70;;;;;;;;;;2083199;28;20034;-62
2022/04/08 00:08:22;;;;;;;3.75;1.40;;;;;;;;;;2086257;28;20056;-61
2022/04/08 00:09:40;;;;;;;2.00;1.35;;;;;;;;;;2084563;28;20029;-62
2022/04/08 00:10:59;;;;;;;1.83;1.17;;;;;;;;;;2085012;28;20546;-59
2022/04/08 00:12:18;;;;;;;2.83;1.42;;;;;;;;;;2082845;28;20029;-62
2022/04/08 00:13:37;;;;;;;4.68;1.60;;;;;;;;;;2083813;28;20037;-62
2022/04/08 00:14:58;;;;;;;2.75;1.45;;;;;;;;;;2084946;28;20037;-61
2022/04/08 00:16:17;;;;;;;2.35;1.27;;;;;;;;;;2084820;28;20022;-62
2022/04/08 00:17:35;;;;;;;2.50;1.50;;;;;;;;;;2084607;28;20503;-62
2022/04/08 00:18:55;;;;;;;4.03;1.42;;;;;;;;;;2084092;28;20120;-62
2022/04/08 00:20:14;;;;;;;2.47;1.35;;;;;;;;;;2077945;28;20033;-62
2022/04/08 00:21:32;;;;;;;2.08;1.42;;;;;;;;;;2080551;28;20029;-62
2022/04/08 00:22:52;;;;;;;3.97;1.38;;;;;;;;;;2084259;28;20115;-62
2022/04/08 00:24:10;;;;;;;1.88;1.40;;;;;;;;;;2084308;28;20017;-61
2022/04/08 00:25:30;;;;;;;2.15;1.42;;;;;;;;;;2082963;28;20383;-62
2022/04/08 00:26:49;;;;;;;4.55;1.25;;;;;;;;;;2083282;28;20034;-62
2022/04/08 00:28:08;;;;;;;1.88;1.40;;;;;;;;;;2085803;28;20033;-62
2022/04/08 00:29:27;;;;;;;3.63;1.67;;;;;;;;;;2085387;28;20029;-62
2022/04/08 00:30:45;;;;;;;1.98;1.52;;;;;;;;;;2083185;28;20017;-62
2022/04/08 00:32:05;;;;;;;1.60;1.20;;;;;;;;;;2083483;28;20391;-62
2022/04/08 00:33:23;;;;;;;1.65;1.25;;;;;;;;;;2084292;28;20045;-61
2022/04/08 00:34:42;;;;;;;1.45;1.35;;;;;;;;;;2083203;28;20396;-62
2022/04/08 00:36:01;;;;;;;1.77;1.30;;;;;;;;;;2084937;28;20411;-62
2022/04/08 00:37:20;;;;;;;2.08;1.65;;;;;;;;;;2076106;28;20026;-62
2022/04/08 00:38:38;;;;;;;4.25;1.70;;;;;;;;;;2080868;28;20029;-62
2022/04/08 00:39:57;;;;;;;1.48;1.10;;;;;;;;;;2081527;28;20112;-61
2022/04/08 00:41:16;;;;;;;2.10;1.38;;;;;;;;;;2086237;28;20033;-62
2022/04/08 00:42:36;;;;;;;2.72;1.45;;;;;;;;;;2075470;28;20108;-62
2022/04/08 00:43:55;;;;;;;3.72;1.33;;;;;;;;;;2081143;28;20034;-62
2022/04/08 00:45:14;;;;;;;1.67;1.35;;;;;;;;;;2082356;28;20037;-62
2022/04/08 00:46:33;;;;;;;3.30;1.20;;;;;;;;;;2083419;28;20037;-62
2022/04/08 00:47:52;;;;;;;3.53;1.50;;;;;;;;;;2083980;28;20041;-62
2022/04/08 00:49:11;;;;;;;3.25;1.75;;;;;;;;;;2081650;28;20022;-62
2022/04/08 00:50:29;;;;;;;2.75;1.27;;;;;;;;;;2081201;28;20029;-62
2022/04/08 00:51:49;;;;;;;2.17;1.45;;;;;;;;;;2082771;28;20030;-60
2022/04/08 00:53:08;;;;;;;2.92;1.35;;;;;;;;;;2084253;28;20037;-62
2022/04/08 00:54:28;;;;;;;1.77;1.60;;;;;;;;;;2084089;28;20045;-61
2022/04/08 00:55:47;;;;;;;3.85;1.42;;;;;;;;;;2084674;28;20029;-62
2022/04/08 00:57:06;;;;;;;4.00;1.45;;;;;;;;;;2080980;28;20033;-62
2022/04/08 00:58:25;;;;;;;2.97;1.42;;;;;;;;;;2082986;28;20029;-62
2022/04/08 00:59:44;;;;;;;4.43;1.30;;;;;;;;;;2082976;28;20408;-61
2022/04/08 01:01:03;;;;;;;3.20;1.27;;;;;;;;;;2084298;28;20029;-62
2022/04/08 01:02:22;;;;;;;3.85;1.77;;;;;;;;;;2085363;28;20021;-62
2022/04/08 01:03:41;;;;;;;1.92;1.70;;;;;;;;;;2084627;28;20114;-61
2022/04/08 01:05:00;;;;;;;3.55;1.92;;;;;;;;;;2084562;28;20391;-62
2022/04/08 01:06:19;;;;;;;3.67;1.30;;;;;;;;;;2082937;28;20025;-62
2022/04/08 01:07:39;;;;;;;2.47;1.65;;;;;;;;;;2083586;28;20026;-61
2022/04/08 01:08:58;;;;;;;1.83;1.38;;;;;;;;;;2078470;28;20033;-62
2022/04/08 01:10:16;;;;;;;3.75;1.63;;;;;;;;;;2081942;28;20030;-62
2022/04/08 01:11:36;;;;;;;2.50;1.17;;;;;;;;;;2082487;28;20041;-62
2022/04/08 01:12:55;;;;;;;3.22;1.70;;;;;;;;;;2085004;28;20515;-62
2022/04/08 01:14:14;;;;;;;4.78;1.50;;;;;;;;;;2083876;28;20037;-61
2022/04/08 01:15:34;;;;;;;2.42;1.52;;;;;;;;;;2084593;28;20486;-62
2022/04/08 01:16:53;;;;;;;3.72;1.50;;;;;;;;;;2082696;28;20406;-63
2022/04/08 01:18:12;;;;;;;2.88;1.40;;;;;;;;;;2086453;28;20025;-62
2022/04/08 01:19:31;;;;;;;3.35;1.48;;;;;;;;;;2083803;28;20499;-62
2022/04/08 01:20:50;;;;;;;4.50;1.67;;;;;;;;;;2072777;28;20069;-60
2022/04/08 01:22:08;;;;;;;4.15;1.40;;;;;;;;;;2081411;28;20033;-62
2022/04/08 01:23:28;;;;;;;2.22;1.27;;;;;;;;;;2086191;28;20034;-60
2022/04/08 01:24:48;;;;;;;2.65;1.80;;;;;;;;;;2086086;28;20022;-62
2022/04/08 01:26:07;;;;;;;3.10;1.50;;;;;;;;;;2087843;28;20104;-62
2022/04/08 01:27:26;;;;;;;2.40;1.25;;;;;;;;;;2083982;28;20112;-62
2022/04/08 01:28:45;;;;;;;2.83;1.30;;;;;;;;;;2084882;28;20394;-62
2022/04/08 01:30:06;;;;;;;5.25;1.65;;;;;;;;;;2086163;28;20042;-62
2022/04/08 01:31:25;;;;;;;2.08;1.25;;;;;;;;;;2085022;28;20025;-62
2022/04/08 01:32:43;;;;;;;1.33;1.23;;;;;;;;;;2085167;28;20400;-62
2022/04/08 01:34:02;;;;;;;5.32;1.40;;;;;;;;;;2077260;28;20025;-62
2022/04/08 01:35:21;;;;;;;1.92;1.13;;;;;;;;;;2082370;28;20026;-62
2022/04/08 01:36:40;;;;;;;3.35;1.35;;;;;;;;;;2085749;28;20029;-62
2022/04/08 01:37:59;;;;;;;3.80;1.75;;;;;;;;;;2083238;28;20029;-62
2022/04/08 01:39:18;;;;;;;6.05;1.73;;;;;;;;;;2087210;28;20449;-62
2022/04/08 01:40:37;;;;;;;2.58;1.58;;;;;;;;;;2084645;28;20033;-62
2022/04/08 01:41:56;;;;;;;1.30;1.08;;;;;;;;;;2086537;28;20073;-62
2022/04/08 01:43:15;;;;;;;3.13;1.48;;;;;;;;;;2085189;28;20038;-61
2022/04/08 01:44:34;;;;;;;2.70;1.33;;;;;;;;;;2083848;28;20029;-62
2022/04/08 01:45:54;;;;;;;2.35;1.30;;;;;;;;;;2076003;28;20077;-63
2022/04/08 01:47:12;;;;;;;2.08;1.30;;;;;;;;;;2082774;28;20029;-62
2022/04/08 01:48:31;;;;;;;1.63;1.20;;;;;;;;;;2084531;28;20026;-62
2022/04/08 01:49:51;;;;;;;1.58;1.45;;;;;;;;;;2086230;28;20026;-62
2022/04/08 01:51:10;;;;;;;2.55;1.50;;;;;;;;;;2084166;28;20017;-62
2022/04/08 01:52:29;;;;;;;6.07;1.85;;;;;;;;;;2083864;28;20029;-62
2022/04/08 01:53:48;;;;;;;5.97;1.55;;;;;;;;;;2082636;28;20108;-62
2022/04/08 01:55:07;;;;;;;2.85;1.60;;;;;;;;;;2072020;28;20709;-62
2022/04/08 01:56:26;;;;;;;3.47;1.85;;;;;;;;;;2081777;28;20033;-62
2022/04/08 01:57:44;;;;;;;6.28;2.03;;;;;;;;;;2085089;28;20494;-62
2022/04/08 01:59:06;;;;;;;3.03;1.92;;;;;;;;;;2084389;28;20099;-62
2022/04/08 02:00:25;;;;;;;3.80;1.48;;;;;;;;;;2084980;28;20056;-62
2022/04/08 02:01:44;;;;;;;1.88;1.42;;;;;;;;;;2085607;28;20491;-62
2022/04/08 02:03:03;;;;;;;2.83;1.50;;;;;;;;;;2073019;28;20069;-62
2022/04/08 02:04:22;;;;;;;1.75;1.60;;;;;;;;;;2073029;28;20433;-62
2022/04/08 02:05:41;;;;;;;4.15;1.42;;;;;;;;;;2081000;28;20025;-62
2022/04/08 02:07:02;;;;;;;2.08;1.48;;;;;;;;;;2087115;28;20491;-62
2022/04/08 02:08:21;;;;;;;4.75;2.13;;;;;;;;;;2087531;28;20434;-62
2022/04/08 02:09:39;;;;;;;3.90;1.52;;;;;;;;;;2075823;28;20018;-62
2022/04/08 02:10:58;;;;;;;2.45;1.63;;;;;;;;;;2080593;28;20049;-61
2022/04/08 02:12:17;;;;;;;4.30;1.70;;;;;;;;;;2075356;28;20030;-62
2022/04/08 02:13:36;;;;;;;1.50;1.40;;;;;;;;;;2082249;28;20029;-62
2022/04/08 02:14:55;;;;;;;1.58;1.25;;;;;;;;;;2085425;28;20032;-62
2022/04/08 02:16:14;;;;;;;3.63;1.88;;;;;;;;;;2085129;28;20022;-63
2022/04/08 02:17:33;;;;;;;3.25;1.83;;;;;;;;;;2086252;28;20049;-62
2022/04/08 02:18:52;;;;;;;3.03;1.40;;;;;;;;;;2082048;28;20487;-62
2022/04/08 02:20:11;;;;;;;2.15;1.63;;;;;;;;;;2081248;28;20025;-60
2022/04/08 02:21:30;;;;;;;1.98;1.60;;;;;;;;;;2083420;28;20033;-62
2022/04/08 02:22:50;;;;;;;2.45;2.25;;;;;;;;;;2084177;28;20033;-62
2022/04/08 02:24:09;;;;;;;1.80;1.50;;;;;;;;;;2083246;28;20018;-62
2022/04/08 02:25:28;;;;;;;4.22;1.60;;;;;;;;;;2085388;28;20495;-62
2022/04/08 02:26:47;;;;;;;2.03;1.73;;;;;;;;;;2083540;28;20021;-62
2022/04/08 02:28:06;;;;;;;6.10;1.95;;;;;;;;;;2082492;28;20029;-62
2022/04/08 02:29:25;;;;;;;4.57;1.80;;;;;;;;;;2076192;28;20026;-62
2022/04/08 02:30:44;;;;;;;5.13;2.00;;;;;;;;;;2082628;28;20029;-62
2022/04/08 02:32:04;;;;;;;1.95;1.58;;;;;;;;;;2084357;28;20029;-61
2022/04/08 02:33:23;;;;;;;3.10;1.92;;;;;;;;;;2085702;28;20120;-63
2022/04/08 02:34:42;;;;;;;3.13;1.92;;;;;;;;;;2086217;28;20029;-62
2022/04/08 02:36:01;;;;;;;3.78;1.88;;;;;;;;;;2084865;28;20025;-62
2022/04/08 02:37:19;;;;;;;6.38;2.65;;;;;;;;;;2085154;28;20025;-61
2022/04/08 02:38:38;;;;;;;3.63;2.03;;;;;;;;;;2086297;28;20037;-62
2022/04/08 02:39:57;;;;;;;7.53;1.98;;;;;;;;;;2084559;28;20045;-62
2022/04/08 02:41:16;;;;;;;6.53;2.20;;;;;;;;;;2086299;28;20037;-62
2022/04/08 02:42:35;;;;;;;4.90;2.00;;;;;;;;;;2085917;28;20042;-64
2022/04/08 02:43:54;;;;;;;3.83;2.10;;;;;;;;;;2085753;28;20116;-61
2022/04/08 02:45:13;;;;;;;4.68;2.15;;;;;;;;;;2084148;28;20021;-63
2022/04/08 02:46:32;;;;;;;4.05;2.28;;;;;;;;;;2085354;28;20033;-63
2022/04/08 02:47:51;;;;;;;4.70;2.28;;;;;;;;;;2083246;28;20399;-62
2022/04/08 02:49:10;;;;;;;7.05;2.53;;;;;;;;;;2086587;28;20029;-63
2022/04/08 02:50:29;;;;;;;3.97;2.25;;;;;;;;;;2085396;28;20029;-61
2022/04/08 02:51:48;;;;;;;3.10;1.90;;;;;;;;;;2083151;28;20021;-60
2022/04/08 02:53:07;;;;;;;4.15;2.53;;;;;;;;;;2087662;28;20037;-62
2022/04/08 02:54:26;;;;;;;7.40;2.00;;;;;;;;;;2083524;28;20033;-62
2022/04/08 02:55:45;;;;;;;6.03;2.50;;;;;;;;;;2086033;28;20050;-62
2022/04/08 02:57:04;;;;;;;5.93;2.10;;;;;;;;;;2084758;28;20037;-63
2022/04/08 02:58:23;;;;;;;3.35;1.95;;;;;;;;;;2086425;28;20045;-62
2022/04/08 02:59:42;;;;;;;6.85;2.15;;;;;;;;;;2085914;28;20040;-62
2022/04/08 03:01:01;;;;;;;4.00;2.70;;;;;;;;;;2077301;28;20026;-63
2022/04/08 03:02:19;;;;;;;13.05;2.55;;;;;;;;;;2079651;28;20100;-61
2022/04/08 03:03:38;;;;;;;3.50;2.20;;;;;;;;;;2083398;28;20042;-62
2022/04/08 03:04:57;;;;;;;5.95;2.22;;;;;;;;;;2085365;28;20029;-62
2022/04/08 03:06:16;;;;;;;5.07;2.20;;;;;;;;;;2086385;28;20021;-62
2022/04/08 03:07:35;;;;;;;6.68;2.30;;;;;;;;;;2085234;28;20383;-62
2022/04/08 03:08:54;;;;;;;6.82;2.95;;;;;;;;;;2085508;28;21038;-60
2022/04/08 03:10:14;;;;;;;7.18;2.10;;;;;;;;;;2084112;28;20037;-62
2022/04/08 03:11:33;;;;;;;8.98;2.90;;;;;;;;;;2086249;28;20135;-62
2022/04/08 03:12:52;;;;;;;4.63;2.58;;;;;;;;;;2075564;28;20412;-62
2022/04/08 03:14:12;;;;;;;5.68;2.50;;;;;;;;;;2082271;28;20030;-62
2022/04/08 03:15:31;;;;;;;5.07;3.00;;;;;;;;;;2084889;28;20498;-62
2022/04/08 03:16:50;;;;;;;5.32;2.70;;;;;;;;;;2084469;28;20026;-62
2022/04/08 03:18:09;;;;;;;7.20;3.00;;;;;;;;;;2084407;28;20029;-62
2022/04/08 03:19:28;;;;;;;4.32;2.80;;;;;;;;;;2086058;28;20065;-62
2022/04/08 03:20:47;;;;;;;9.10;3.35;;;;;;;;;;2086895;28;20390;-62
2022/04/08 03:22:06;;;;;;;6.45;2.70;;;;;;;;;;2073218;28;20026;-61
2022/04/08 03:23:25;;;;;;;8.48;2.95;;;;;;;;;;2082754;28;20025;-62
2022/04/08 03:24:44;;;;;;;7.00;3.40;;;;;;;;;;2081374;28;20037;-62
2022/04/08 03:26:03;;;;;;;6.13;3.28;;;;;;;;;;2084703;28;20479;-62
2022/04/08 03:27:21;;;;;;;8.80;2.97;;;;;;;;;;2084386;28;20033;-62
2022/04/08 03:28:42;;;;;;;6.50;3.10;;;;;;;;;;2084026;28;20511;-62
2022/04/08 03:30:01;;;;;;;9.68;3.35;;;;;;;;;;2084176;28;20076;-62
2022/04/08 03:31:20;;;;;;;6.97;2.83;;;;;;;;;;2082998;28;20415;-62
2022/04/08 03:32:39;;;;;;;9.38;2.83;;;;;;;;;;2076135;28;20026;-62
2022/04/08 03:33:58;;;;;;;7.20;2.92;;;;;;;;;;2079474;28;20030;-62
2022/04/08 03:35:17;;;;;;;8.55;3.22;;;;;;;;;;2085169;28;20112;-62
2022/04/08 03:36:36;;;;;;;8.07;2.88;;;;;;;;;;2085705;28;20069;-61
2022/04/08 03:37:55;;;;;;;8.80;3.13;;;;;;;;;;2084416;28;20025;-62
2022/04/08 03:39:14;;;;;;;8.27;3.35;;;;;;;;;;2084936;28;20041;-62
2022/04/08 03:40:34;;;;;;;7.28;2.67;;;;;;;;;;2077359;28;20033;-61
2022/04/08 03:41:55;;;;;;;8.20;2.90;;;;;;;;;;2077430;28;20033;-61
2022/04/08 03:43:14;;;;;;;9.35;3.13;;;;;;;;;;2084039;28;20108;-62
2022/04/08 03:44:33;;;;;;;9.43;3.33;;;;;;;;;;2083789;28;20037;-62
2022/04/08 03:45:52;;;;;;;8.07;2.88;;;;;;;;;;2086522;28;20029;-60
2022/04/08 03:47:11;;;;;;;9.60;2.75;;;;;;;;;;2084071;28;20037;-62
2022/04/08 03:48:30;;;;;;;10.15;3.33;;;;;;;;;;2083456;28;20033;-61
2022/04/08 03:49:49;;;;;;;12.82;3.33;;;;;;;;;;2086790;28;20029;-62
2022/04/08 03:51:08;;;;;;;5.80;2.85;;;;;;;;;;2077657;28;20037;-62
2022/04/08 03:52:32;;;;;;;9.45;2.97;;;;;;;;;;2083033;28;20025;-62
2022/04/08 03:53:51;;;;;;;10.23;3.58;;;;;;;;;;2081344;28;20034;-62
2022/04/08 03:55:10;;;;;;;6.50;3.25;;;;;;;;;;2087771;28;20151;-62
2022/04/08 03:56:29;;;;;;;7.95;3.15;;;;;;;;;;2086978;28;20032;-62
2022/04/08 03:57:48;;;;;;;8.75;3.50;;;;;;;;;;2085677;28;20081;-62
2022/04/08 03:59:08;;;;;;;7.82;3.35;;;;;;;;;;2081220;28;20060;-63
2022/04/08 04:00:27;;;;;;;7.45;3.22;;;;;;;;;;2083885;28;20026;-62
2022/04/08 04:01:46;;;;;;;9.40;3.38;;;;;;;;;;2075874;28;20026;-64
2022/04/08 04:03:05;;;;;;;7.00;3.22;;;;;;;;;;2080042;28;20503;-62
2022/04/08 04:04:26;;;;;;;10.52;3.72;;;;;;;;;;2081182;28;20029;-62
2022/04/08 04:05:44;;;;;;;7.53;3.33;;;;;;;;;;2084353;28;20026;-61
2022/04/08 04:07:03;;;;;;;9.50;4.03;;;;;;;;;;2085573;28;20669;-62
2022/04/08 04:08:22;;;;;;;8.73;3.58;;;;;;;;;;2081276;28;20028;-62
2022/04/08 04:09:41;;;;;;;8.38;3.40;;;;;;;;;;2083301;28;20108;-61
2022/04/08 04:11:00;;;;;;;14.40;3.47;;;;;;;;;;2073769;28;20074;-62
2022/04/08 04:12:19;;;;;;;8.23;3.60;;;;;;;;;;2079568;28;20042;-62
2022/04/08 04:13:38;;;;;;;9.43;3.63;;;;;;;;;;2083739;28;20025;-62
2022/04/08 04:14:58;;;;;;;6.45;3.40;;;;;;;;;;2083362;28;20037;-61
2022/04/08 04:16:16;;;;;;;10.95;3.85;;;;;;;;;;2082213;28;20034;-62
2022/04/08 04:17:36;;;;;;;11.38;4.30;;;;;;;;;;2084034;28;20107;-62
2022/04/08 04:18:55;;;;;;;5.25;3.40;;;;;;;;;;2080963;28;20038;-62
2022/04/08 04:20:14;;;;;;;7.47;3.53;;;;;;;;;;2074651;28;20034;-62
2022/04/08 04:21:33;;;;;;;7.25;3.22;;;;;;;;;;2079397;28;20400;-61
2022/04/08 04:22:53;;;;;;;8.38;3.80;;;;;;;;;;2084178;28;20053;-62
2022/04/08 04:24:12;;;;;;;8.65;3.55;;;;;;;;;;2084014;28;20061;-62
2022/04/08 04:25:31;;;;;;;11.45;3.80;;;;;;;;;;2076709;28;20026;-62
2022/04/08 04:26:50;;;;;;;11.57;3.45;;;;;;;;;;2073078;28;20122;-62
2022/04/08 04:28:09;;;;;;;10.30;3.70;;;;;;;;;;2080498;28;20022;-61
2022/04/08 04:29:28;;;;;;;11.30;3.70;;;;;;;;;;2083407;28;20025;-62
2022/04/08 04:30:47;;;;;;;10.43;3.78;;;;;;;;;;2085019;28;20418;-61
2022/04/08 04:32:06;;;;;;;9.25;3.97;;;;;;;;;;2084807;28;20025;-62
2022/04/08 04:33:26;;;;;;;7.03;3.50;;;;;;;;;;2081617;28;20503;-62
2022/04/08 04:34:45;;;;;;;17.05;7.97;;;;;;;;;;2082883;28;20041;-61
2022/04/08 04:36:04;;;;;;;8.32;5.40;;;;;;;;;;2082982;28;20029;-62
2022/04/08 04:37:23;;;;;;;14.77;4.60;;;;;;;;;;2083687;28;20033;-62
2022/04/08 04:38:42;;;;;;;9.68;4.10;;;;;;;;;;2081957;28;20041;-61
2022/04/08 04:40:01;;;;;;;11.20;5.15;;;;;;;;;;2084488;28;20435;-62
2022/04/08 04:41:20;;;;;;;11.32;4.93;;;;;;;;;;2081324;28;20033;-62
2022/04/08 04:42:39;;;;;;;9.43;5.28;;;;;;;;;;2073211;28;20403;-63
2022/04/08 04:43:58;;;;;;;10.25;4.35;;;;;;;;;;2080002;28;20033;-61
2022/04/08 04:45:18;;;;;;;10.85;5.10;;;;;;;;;;2086941;28;20037;-61
2022/04/08 04:46:37;;;;;;;9.00;4.78;;;;;;;;;;2086167;28;20022;-61
2022/04/08 04:47:56;;;;;;;12.32;4.93;;;;;;;;;;2084187;28;20030;-61
2022/04/08 04:49:15;;;;;;;11.32;5.65;;;;;;;;;;2085628;28;20395;-61
2022/04/08 04:50:34;;;;;;;10.98;5.15;;;;;;;;;;2077457;28;20037;-60
2022/04/08 04:51:53;;;;;;;8.00;5.10;;;;;;;;;;2083318;28;20029;-61
2022/04/08 04:53:12;;;;;;;11.05;5.75;;;;;;;;;;2086879;28;20929;-61
2022/04/08 04:54:31;;;;;;;10.32;4.60;;;;;;;;;;2086278;28;20482;-62
2022/04/08 04:55:49;;;;;;;9.77;5.55;;;;;;;;;;2084631;28;20033;-61
2022/04/08 04:57:08;;;;;;;9.98;5.90;;;;;;;;;;2085028;28;20029;-61
2022/04/08 04:58:27;;;;;;;11.40;5.30;;;;;;;;;;2087133;28;20033;-61
2022/04/08 04:59:46;;;;;;;13.85;5.90;;;;;;;;;;2086340;28;20104;-62
2022/04/08 05:01:05;;;;;;;10.75;5.68;;;;;;;;;;2084713;28;20042;-62
2022/04/08 05:02:24;;;;;;;15.15;6.43;;;;;;;;;;2086689;28;20025;-62
2022/04/08 05:03:43;;;;;;;11.02;6.70;;;;;;;;;;2086115;28;20444;-61
2022/04/08 05:05:02;;;;;;;16.15;6.53;;;;;;;;;;2086987;28;20032;-61
2022/04/08 05:06:21;;;;;;;12.40;6.18;;;;;;;;;;2086050;28;20028;-62
2022/04/08 05:07:40;;;;;;;7.43;5.45;;;;;;;;;;2086778;28;20021;-62
2022/04/08 05:08:59;;;;;;;9.70;5.95;;;;;;;;;;2077059;28;20026;-62
2022/04/08 05:10:18;;;;;;;7.78;5.53;;;;;;;;;;2081882;28;20033;-61
2022/04/08 05:11:37;;;;;;;12.40;6.22;;;;;;;;;;2078692;28;20274;-62
2022/04/08 05:12:55;;;;;;;11.15;5.97;;;;;;;;;;2085016;28;20029;-62
2022/04/08 05:14:14;;;;;;;8.13;5.45;;;;;;;;;;2084892;28;20159;-62
2022/04/08 05:15:38;;;;;;;12.75;5.65;;;;;;;;;;2086239;28;20033;-62
2022/04/08 05:16:58;;;;;;;9.85;5.93;;;;;;;;;;2085467;28;20029;-61
2022/04/08 05:18:16;;;;;;;10.25;5.93;;;;;;;;;;2086985;28;20045;-61
2022/04/08 05:19:35;;;;;;;13.07;5.97;;;;;;;;;;2085843;28;20036;-64
2022/04/08 05:20:54;;;;;;;17.70;6.32;;;;;;;;;;2087619;28;20026;-61
2022/04/08 05:22:13;;;;;;;7.97;5.30;;;;;;;;;;2088231;28;20028;-62
2022/04/08 05:23:33;;;;;;;9.30;5.13;;;;;;;;;;2087022;28;20136;-60
2022/04/08 05:24:51;;;;;;;9.48;5.07;;;;;;;;;;2087195;28;20383;-61
2022/04/08 05:26:11;;;;;;;8.50;5.22;;;;;;;;;;2076790;28;20136;-61
2022/04/08 05:27:37;;;;;;;8.15;4.95;;;;;;;;;;2083159;28;20037;-62
2022/04/08 05:28:56;;;;;;;9.27;4.40;;;;;;;;;;2086518;28;20029;-62
2022/04/08 05:30:18;;;;;;;5.93;4.82;;;;;;;;;;2085168;28;20037;-61
2022/04/08 05:31:37;;;;;;;5.28;4.65;;;;;;;;;;2086846;28;20038;-62
2022/04/08 05:32:56;;;;;;;8.80;4.50;;;;;;;;;;2087359;28;20040;-62
2022/04/08 05:34:15;;;;;;;8.05;4.63;;;;;;;;;;2078459;28;20086;-61
2022/04/08 05:35:34;;;;;;;8.50;4.82;;;;;;;;;;2086027;28;20034;-61
2022/04/08 05:36:53;;;;;;;8.05;4.50;;;;;;;;;;2087383;28;20483;-61
2022/04/08 05:38:12;;;;;;;5.65;4.70;;;;;;;;;;2085785;28;20025;-62
2022/04/08 05:39:31;;;;;;;7.72;4.75;;;;;;;;;;2085033;28;20021;-61
2022/04/08 05:40:50;;;;;;;8.52;5.07;;;;;;;;;;2086637;28;20099;-61
2022/04/08 05:42:08;;;;;;;8.73;4.45;;;;;;;;;;2086086;28;20032;-61
2022/04/08 05:43:28;;;;;;;11.63;4.38;;;;;;;;;;2085683;28;20483;-61
2022/04/08 05:44:47;;;;;;;11.52;5.32;;;;;;;;;;2085793;28;20143;-62
2022/04/08 05:46:05;;;;;;;8.70;4.68;;;;;;;;;;2086010;28;20076;-61
2022/04/08 05:47:28;;;;;;;4.93;4.25;;;;;;;;;;2088764;28;20033;-62
2022/04/08 05:48:47;;;;;;;6.20;5.35;;;;;;;;;;2082899;28;20415;-62
2022/04/08 05:50:06;;;;;;;9.55;5.25;;;;;;;;;;2084345;28;20147;-61
2022/04/08 05:51:25;;;;;;;6.43;3.40;;;;;;;;;;2088743;28;20017;-62
2022/04/08 05:52:45;;;;;;;3.17;2.40;;;;;;;;;;2085974;28;20112;-61
2022/04/08 05:54:04;;;;;;;1.95;1.10;;;;;;;;;;2087648;28;20029;-62
2022/04/08 05:55:23;;;;;;;1.20;1.00;;;;;;;;;;2087402;28;20029;-62
2022/04/08 05:56:42;;;;;;;3.88;1.00;;;;;;;;;;2076537;28;20133;-59
2022/04/08 05:58:01;;;;;;;2.63;0.60;;;;;;;;;;2079389;28;20116;-62
2022/04/08 05:59:20;;;;;;;1.05;0.63;;;;;;;;;;2085336;28;20025;-62
2022/04/08 06:00:39;;;;;;;0.90;0.90;;;;;;;;;;2076518;28;20116;-62
2022/04/08 06:01:58;;;;;;;0.50;0.50;;;;;;;;;;2080646;28;20029;-62
2022/04/08 06:03:17;;;;;;;1.10;0.50;;;;;;;;;;2085261;28;20053;-62
2022/04/08 06:04:36;;;;;;;0.50;0.50;;;;;;;;;;2076665;28;20030;-61
2022/04/08 06:05:56;;;;;;;1.45;0.43;;;;;;;;;;2083496;28;20021;-61
2022/04/08 06:07:14;;;;;;;0.32;0.32;;;;;;;;;;2083211;28;20454;-61
2022/04/08 06:08:34;;;;;;;0.45;0.45;;;;;;;;;;2086152;28;20025;-62
2022/04/08 06:09:53;;;;;;;0.47;0.47;;;;;;;;;;2085503;28;20025;-61
2022/04/08 06:11:12;;;;;;;0.40;0.40;;;;;;;;;;2083252;28;20037;-61
2022/04/08 06:12:31;;;;;;;0.40;0.40;;;;;;;;;;2084768;28;20025;-62
2022/04/08 06:13:50;;;;;;;0.50;0.50;;;;;;;;;;2083427;28;20033;-62
2022/04/08 06:15:09;;;;;;;2.67;0.70;;;;;;;;;;2084055;28;20497;-62
2022/04/08 06:16:28;;;;;;;0.50;0.50;;;;;;;;;;2085340;28;20037;-61
2022/04/08 06:17:47;;;;;;;0.52;0.52;;;;;;;;;;2085977;28;20427;-61
2022/04/08 06:19:05;;;;;;;0.75;0.60;;;;;;;;;;2078478;28;20026;-61
2022/04/08 06:20:25;;;;;;;1.95;0.60;;;;;;;;;;2082769;28;20415;-62
2022/04/08 06:21:44;;;;;;;0.65;0.65;;;;;;;;;;2082045;28;20050;-62
2022/04/08 06:23:03;;;;;;;0.60;0.60;;;;;;;;;;2084618;28;20033;-61
2022/04/08 06:24:22;;;;;;;0.85;0.52;;;;;;;;;;2085715;28;20037;-61
2022/04/08 06:25:40;;;;;;;1.02;0.52;;;;;;;;;;2083331;28;20018;-62
2022/04/08 06:26:59;;;;;;;0.25;0.20;;;;;;;;;;2083471;28;20488;-62
2022/04/08 06:28:18;;;;;;;0.13;0.13;;;;;;;;;;2083826;28;20029;-62
2022/04/08 06:29:37;;;;;;;0.10;0.10;;;;;;;;;;2075927;28;20077;-61
2022/04/08 06:30:56;;;;;;;0.15;0.15;;;;;;;;;;2080097;28;20025;-62
2022/04/08 06:32:15;;;;;;;0.10;0.10;;;;;;;;;;2083838;28;20068;-62
2022/04/08 06:33:34;;;;;;;0.13;0.13;;;;;;;;;;2084892;28;20033;-62
2022/04/08 06:34:53;;;;;;;0.50;0.30;;;;;;;;;;2085130;28;20435;-61
2022/04/08 06:36:11;;;;;;;1.75;0.20;;;;;;;;;;2084606;28;20033;-62
2022/04/08 06:37:30;;;;;;;0.20;0.20;;;;;;;;;;2083054;28;20033;-62
2022/04/08 06:38:49;;;;;;;1.55;0.10;;;;;;;;;;2084245;28;20488;-62
2022/04/08 06:40:09;;;;;;;1.60;0.20;;;;;;;;;;2086329;28;20112;-61
2022/04/08 06:41:28;;;;;;;0.52;0.30;;;;;;;;;;2084110;28;20030;-62
2022/04/08 06:42:47;;;;;;;0.25;0.25;;;;;;;;;;2084601;28;20025;-62
2022/04/08 06:44:09;;;;;;;0.38;0.38;;;;;;;;;;2083443;28;20029;-62
2022/04/08 06:45:28;;;;;;;0.30;0.30;;;;;;;;;;2085231;28;20398;-61
2022/04/08 06:46:47;;;;;;;0.40;0.40;;;;;;;;;;2085472;28;20510;-62
2022/04/08 06:48:06;;;;;;;0.63;0.40;;;;;;;;;;2083541;28;20030;-62
2022/04/08 06:49:25;;;;;;;0.40;0.40;;;;;;;;;;2083793;28;20030;-62
2022/04/08 06:50:45;;;;;;;0.50;0.40;;;;;;;;;;2084679;28;20034;-62
2022/04/08 06:52:04;;;;;;;0.45;0.45;;;;;;;;;;2083695;28;20497;-61
2022/04/08 06:53:23;;;;;;;1.60;0.40;;;;;;;;;;2083938;28;20046;-62
2022/04/08 06:54:42;;;;;;;0.40;0.40;;;;;;;;;;2077555;28;20029;-62
2022/04/08 06:56:01;;;;;;;0.30;0.30;;;;;;;;;;2080499;28;20049;-62
2022/04/08 06:57:20;;;;;;;1.17;0.30;;;;;;;;;;2084705;28;20029;-62
2022/04/08 06:58:39;;;;;;;0.30;0.28;;;;;;;;;;2075438;28;20026;-61
2022/04/08 06:59:58;;;;;;;0.40;0.30;;;;;;;;;;2083150;28;20033;-61
2022/04/08 07:01:17;;;;;;;0.70;0.50;;;;;;;;;;2084193;28;20033;-61
2022/04/08 07:02:36;;;;;;;0.25;0.20;;;;;;;;;;2084281;28;20041;-61
2022/04/08 07:03:55;;;;;;;0.28;0.28;;;;;;;;;;2084179;28;20426;-61
2022/04/08 07:05:14;;;;;;;1.25;0.20;;;;;;;;;;2082662;28;20076;-61
2022/04/08 07:06:33;;;;;;;0.30;0.30;;;;;;;;;;2083202;28;20030;-61
2022/04/08 07:07:52;;;;;;;0.60;0.60;;;;;;;;;;2084923;28;20025;-61
2022/04/08 07:09:11;;;;;;;0.60;0.55;;;;;;;;;;2085049;28;20041;-61
2022/04/08 07:10:29;;;;;;;0.30;0.30;;;;;;;;;;2076068;28;20038;-61
2022/04/08 07:11:48;;;;;;;0.22;0.22;;;;;;;;;;2079968;28;20045;-61
2022/04/08 07:13:07;;;;;;;0.30;0.30;;;;;;;;;;2083703;28;20025;-61
2022/04/08 07:14:27;;;;;;;1.48;1.38;;;;;;;;;;2077008;28;20029;-61
2022/04/08 07:15:46;;;;;;;0.30;0.30;;;;;;;;;;2082564;28;20025;-60
2022/04/08 07:17:05;;;;;;;0.55;0.50;;;;;;;;;;2081910;28;20037;-61
2022/04/08 07:18:24;;;;;;;0.40;0.40;;;;;;;;;;2083169;28;20461;-61
2022/04/08 07:19:43;;;;;;;1.00;0.35;;;;;;;;;;2082559;28;20034;-61
2022/04/08 07:21:02;;;;;;;1.58;0.80;;;;;;;;;;2083397;28;20029;-61
2022/04/08 07:22:21;;;;;;;0.40;0.40;;;;;;;;;;2082106;28;20022;-61
2022/04/08 07:23:40;;;;;;;0.98;0.35;;;;;;;;;;2084741;28;20030;-60
2022/04/08 07:25:00;;;;;;;0.30;0.30;;;;;;;;;;2084618;28;20389;-61
2022/04/08 07:26:20;;;;;;;0.40;0.40;;;;;;;;;;2082905;28;20034;-60
2022/04/08 07:27:50;;;;;;;1.33;0.40;;;;;;;;;;2088038;28;20034;-61
2022/04/08 07:29:09;;;;;;;0.70;0.50;;;;;;;;;;2083136;28;20029;-61
2022/04/08 07:30:28;;;;;;;0.50;0.50;;;;;;;;;;2083873;28;20025;-61
2022/04/08 07:31:47;;;;;;;0.30;0.30;;;;;;;;;;2082895;28;20033;-61
2022/04/08 07:33:07;;;;;;;0.40;0.40;;;;;;;;;;2073794;28;20025;-61
2022/04/08 07:34:26;;;;;;;0.20;0.20;;;;;;;;;;2080232;28;20030;-60
2022/04/08 07:35:45;;;;;;;0.40;0.40;;;;;;;;;;2084736;28;20453;-61
2022/04/08 07:37:04;;;;;;;0.30;0.30;;;;;;;;;;2082246;28;20038;-61
2022/04/08 07:38:23;;;;;;;0.40;0.40;;;;;;;;;;2084067;28;20033;-61
2022/04/08 07:39:43;;;;;;;0.30;0.30;;;;;;;;;;2084576;28;20021;-62
2022/04/08 07:41:02;;;;;;;0.40;0.40;;;;;;;;;;2084182;28;20064;-62
2022/04/08 07:42:21;;;;;;;0.85;0.32;;;;;;;;;;2082122;28;20448;-62
2022/04/08 07:43:40;;;;;;;0.47;0.40;;;;;;;;;;2083175;28;20029;-60
2022/04/08 07:44:58;;;;;;;0.30;0.30;;;;;;;;;;2082380;28;20037;-61
2022/04/08 07:46:18;;;;;;;0.20;0.20;;;;;;;;;;2085899;28;20025;-62
2022/04/08 07:47:37;;;;;;;3.28;0.25;;;;;;;;;;2075551;28;20109;-61
2022/04/08 07:48:56;;;;;;;0.20;0.20;;;;;;;;;;2083052;28;20021;-62
2022/04/08 07:50:15;;;;;;;0.20;0.20;;;;;;;;;;2082982;28;20480;-60
2022/04/08 07:51:34;;;;;;;0.20;0.13;;;;;;;;;;2084146;28;20037;-61
2022/04/08 07:52:53;;;;;;;0.20;0.20;;;;;;;;;;2074388;28;20443;-62